createdAt,value
2018-09-21T00:02:26.516Z,95967.50
2018-09-21T00:04:56.483Z,95973.55
2018-09-21T00:07:26.811Z,95968.13
2018-09-21T00:09:57.140Z,95969.32
2018-09-21T00:12:27.475Z,95976.81
2018-09-21T00:14:58.839Z,95968.98
2018-09-21T00:17:28.596Z,95971.84
2018-09-21T00:19:58.389Z,95965.19
2018-09-21T00:22:28.155Z,95970.91
2018-09-21T00:24:58.466Z,95965.48
2018-09-21T00:27:28.209Z,95964.19
2018-09-21T00:29:58.540Z,95961.03
2018-09-21T00:32:28.417Z,95956.48
2018-09-21T00:34:58.758Z,95959.41
2018-09-21T00:37:29.111Z,95961.39
2018-09-21T00:39:59.454Z,95964.05
2018-09-21T00:42:29.515Z,95959.14
2018-09-21T00:44:59.286Z,95957.08
2018-09-21T00:47:29.621Z,95957.94
2018-09-21T00:49:59.449Z,95956.30
2018-09-21T00:52:29.345Z,95955.45
2018-09-21T00:54:59.118Z,95956.92
2018-09-21T00:57:28.959Z,95952.02
2018-09-21T00:59:58.845Z,95953.45
2018-09-21T01:02:28.590Z,95952.96
2018-09-21T01:04:58.389Z,95952.83
2018-09-21T01:07:28.125Z,95955.21
2018-09-21T01:09:57.883Z,95956.16
2018-09-21T01:12:27.724Z,95953.17
2018-09-21T01:14:57.515Z,95950.94
2018-09-21T01:17:27.317Z,95957.22
2018-09-21T01:19:57.145Z,95950.94
2018-09-21T01:22:26.926Z,95955.99
2018-09-21T01:24:56.745Z,95952.64
2018-09-21T01:27:26.591Z,95949.09
2018-09-21T01:29:56.397Z,95949.53
2018-09-21T01:32:26.191Z,95945.97
2018-09-21T01:34:56.294Z,95946.75
2018-09-21T01:37:26.045Z,95944.91
2018-09-21T01:39:55.883Z,95953.44
2018-09-21T01:42:25.639Z,95947.41
2018-09-21T01:44:55.560Z,95953.37
2018-09-21T01:47:25.354Z,95942.97
2018-09-21T01:49:55.151Z,95942.06
2018-09-21T01:52:25.081Z,95940.78
2018-09-21T01:54:54.950Z,95939.37
2018-09-21T01:57:24.831Z,95937.40
2018-09-21T01:59:54.631Z,95935.41
2018-09-21T02:02:24.404Z,95933.52
2018-09-21T02:04:54.334Z,95927.93
2018-09-21T02:07:24.167Z,95928.36
2018-09-21T02:09:54.033Z,95921.41
2018-09-21T02:12:23.866Z,95927.55
2018-09-21T02:14:53.714Z,95925.89
2018-09-21T02:17:23.611Z,95930.97
2018-09-21T02:19:53.475Z,95927.28
2018-09-21T02:22:23.299Z,95931.25
2018-09-21T02:24:53.103Z,95926.34
2018-09-21T02:27:22.903Z,95927.58
2018-09-21T02:29:52.771Z,95928.17
2018-09-21T02:32:22.637Z,95927.47
2018-09-21T02:34:52.432Z,95931.00
2018-09-21T02:37:22.220Z,95925.94
2018-09-21T02:39:52.051Z,95926.61
2018-09-21T02:42:21.828Z,95918.28
2018-09-21T02:44:51.623Z,95919.45
2018-09-21T02:47:21.434Z,95918.02
2018-09-21T02:49:51.262Z,95916.83
2018-09-21T02:52:21.059Z,95910.02
2018-09-21T02:54:50.812Z,95913.96
2018-09-21T02:57:20.617Z,95920.77
2018-09-21T02:59:50.546Z,95914.23
2018-09-21T03:02:20.340Z,95919.98
2018-09-21T03:04:53.818Z,95913.03
2018-09-21T03:07:24.542Z,95915.08
2018-09-21T03:09:54.902Z,95916.12
2018-09-21T03:12:24.660Z,95912.51
2018-09-21T03:14:54.451Z,95911.73
2018-09-21T03:17:24.266Z,95916.45
2018-09-21T03:19:54.250Z,95913.88
2018-09-21T03:22:24.070Z,95920.16
2018-09-21T03:24:53.830Z,95914.41
2018-09-21T03:27:23.752Z,95907.02
2018-09-21T03:29:53.602Z,95905.12
2018-09-21T03:32:23.438Z,95897.31
2018-09-21T03:34:53.297Z,95892.45
2018-09-21T03:37:23.585Z,95896.84
2018-09-21T03:39:53.724Z,95894.69
2018-09-21T03:42:23.621Z,95897.10
2018-09-21T03:44:54.018Z,95894.80
2018-09-21T03:47:23.815Z,95892.71
2018-09-21T03:49:53.584Z,95887.31
2018-09-21T03:52:23.376Z,95889.80
2018-09-21T03:54:53.219Z,95891.75
2018-09-21T03:57:23.006Z,95889.35
2018-09-21T03:59:52.818Z,95890.27
2018-09-21T04:02:22.604Z,95884.77
2018-09-21T04:04:52.447Z,95883.81
2018-09-21T04:07:22.232Z,95870.48
2018-09-21T04:09:52.088Z,95866.95
2018-09-21T04:12:21.879Z,95872.30
2018-09-21T04:14:51.632Z,95875.66
2018-09-21T04:17:22.883Z,95881.39
2018-09-21T04:19:52.657Z,95878.78
2018-09-21T04:22:22.439Z,95880.66
2018-09-21T04:24:52.242Z,95886.29
2018-09-21T04:27:22.034Z,95878.52
2018-09-21T04:29:51.852Z,95882.70
2018-09-21T04:32:21.618Z,95876.93
2018-09-21T04:34:52.082Z,95884.66
2018-09-21T04:37:21.928Z,95889.16
2018-09-21T04:39:51.693Z,95890.50
2018-09-21T04:42:21.481Z,95887.50
2018-09-21T04:44:51.268Z,95886.66
2018-09-21T04:47:21.388Z,95885.64
2018-09-21T04:49:51.312Z,95891.46
2018-09-21T04:52:21.177Z,95888.88
2018-09-21T04:54:51.105Z,95886.31
2018-09-21T04:57:20.893Z,95884.45
2018-09-21T04:59:50.695Z,95888.35
2018-09-21T05:02:20.783Z,95889.81
2018-09-21T05:04:50.555Z,95891.91
2018-09-21T05:07:20.331Z,95889.03
2018-09-21T05:09:50.124Z,95883.91
2018-09-21T05:12:19.920Z,95879.36
2018-09-21T05:14:49.847Z,95883.82
2018-09-21T05:17:19.639Z,95891.47
2018-09-21T05:19:49.661Z,95892.47
2018-09-21T05:22:19.568Z,95898.48
2018-09-21T05:24:49.300Z,95897.46
2018-09-21T05:27:19.178Z,95894.16
2018-09-21T05:29:48.929Z,95896.66
2018-09-21T05:32:18.702Z,95896.45
2018-09-21T05:34:48.632Z,95903.52
2018-09-21T05:37:18.496Z,95900.69
2018-09-21T05:39:48.295Z,95906.42
2018-09-21T05:42:18.032Z,95900.10
2018-09-21T05:44:47.790Z,95898.28
2018-09-21T05:47:17.725Z,95901.67
2018-09-21T05:49:47.524Z,95899.61
2018-09-21T05:52:17.308Z,95898.38
2018-09-21T05:54:47.094Z,95896.09
2018-09-21T05:57:16.854Z,95900.98
2018-09-21T05:59:46.787Z,95896.47
2018-09-21T06:02:16.769Z,95902.97
2018-09-21T06:04:46.606Z,95899.30
2018-09-21T06:07:16.370Z,95897.86
2018-09-21T06:09:46.139Z,95903.97
2018-09-21T06:12:16.057Z,95900.86
2018-09-21T06:14:45.813Z,95898.83
2018-09-21T06:17:15.571Z,95898.02
2018-09-21T06:19:45.349Z,95887.98
2018-09-21T06:22:15.245Z,95890.70
2018-09-21T06:24:45.101Z,95891.05
2018-09-21T06:27:14.898Z,95890.99
2018-09-21T06:29:44.696Z,95889.96
2018-09-21T06:32:14.472Z,95891.67
2018-09-21T06:34:44.307Z,95885.32
2018-09-21T06:37:14.099Z,95893.52
2018-09-21T06:39:44.209Z,95894.38
2018-09-21T06:42:13.982Z,95894.38
2018-09-21T06:44:43.794Z,95895.83
2018-09-21T06:47:13.553Z,95895.16
2018-09-21T06:49:43.597Z,95901.17
2018-09-21T06:52:13.495Z,95897.18
2018-09-21T06:54:43.289Z,95897.17
2018-09-21T06:57:13.128Z,95897.89
2018-09-21T06:59:42.887Z,95894.81
2018-09-21T07:02:12.642Z,95903.52
2018-09-21T07:04:42.440Z,95890.59
2018-09-21T07:07:12.750Z,95895.09
2018-09-21T07:09:43.108Z,95885.88
2018-09-21T07:12:13.461Z,95888.02
2018-09-21T07:14:43.844Z,95893.53
2018-09-21T07:17:14.184Z,95891.00
2018-09-21T07:19:44.547Z,95894.74
2018-09-21T07:22:14.879Z,95897.34
2018-09-21T07:24:45.237Z,95889.23
2018-09-21T07:27:15.591Z,95890.38
2018-09-21T07:29:45.979Z,95887.73
2018-09-21T07:32:16.315Z,95885.22
2018-09-21T07:34:46.663Z,95884.55
2018-09-21T07:37:17.007Z,95883.68
2018-09-21T07:39:47.363Z,95883.75
2018-09-21T07:42:17.710Z,95884.33
2018-09-21T07:44:48.041Z,95881.83
2018-09-21T07:47:18.402Z,95884.98
2018-09-21T07:49:48.775Z,95888.31
2018-09-21T07:52:18.816Z,95883.09
2018-09-21T07:54:48.908Z,95886.27
2018-09-21T07:57:18.969Z,95891.20
2018-09-21T07:59:49.046Z,95902.71
2018-09-21T08:02:19.101Z,95898.83
2018-09-21T08:04:49.204Z,95893.31
2018-09-21T08:07:19.304Z,95893.05
2018-09-21T08:09:49.567Z,95890.38
2018-09-21T08:12:19.645Z,95892.11
2018-09-21T08:14:49.705Z,95898.86
2018-09-21T08:17:19.748Z,95894.90
2018-09-21T08:19:49.806Z,95891.32
2018-09-21T08:22:19.822Z,95886.64
2018-09-21T08:24:50.138Z,95886.20
2018-09-21T08:27:21.148Z,95881.48
2018-09-21T08:29:51.522Z,95878.88
2018-09-21T08:32:21.890Z,95887.31
2018-09-21T08:34:52.199Z,95892.20
2018-09-21T08:37:22.893Z,95888.45
2018-09-21T08:39:53.276Z,95892.02
2018-09-21T08:42:23.612Z,95893.97
2018-09-21T08:44:54.002Z,95894.48
2018-09-21T08:47:24.398Z,95891.56
2018-09-21T08:49:55.155Z,95889.06
2018-09-21T08:52:25.478Z,95894.81
2018-09-21T08:54:55.864Z,95897.94
2018-09-21T08:57:26.377Z,95893.11
2018-09-21T08:59:56.756Z,95896.55
2018-09-21T09:02:27.092Z,95901.72
2018-09-21T09:04:58.180Z,95899.23
2018-09-21T09:07:28.506Z,95896.78
2018-09-21T09:09:58.901Z,95900.64
2018-09-21T09:12:29.250Z,95897.16
2018-09-21T09:14:59.655Z,95891.80
2018-09-21T09:17:30.024Z,95885.84
2018-09-21T09:20:00.380Z,95887.05
2018-09-21T09:22:30.732Z,95882.92
2018-09-21T09:25:01.181Z,95882.31
2018-09-21T09:27:31.710Z,95881.12
2018-09-21T09:30:02.390Z,95886.92
2018-09-21T09:32:32.876Z,95888.48
2018-09-21T09:35:03.293Z,95887.83
2018-09-21T09:37:33.670Z,95892.23
2018-09-21T09:40:04.700Z,95877.06
2018-09-21T09:42:35.130Z,95876.13
2018-09-21T09:45:05.728Z,95877.84
2018-09-21T09:47:36.048Z,95875.41
2018-09-21T09:50:07.483Z,95869.03
2018-09-21T09:52:37.832Z,95865.91
2018-09-21T09:55:08.231Z,95870.45
2018-09-21T09:57:38.916Z,95853.47
2018-09-21T10:00:10.300Z,95862.64
2018-09-21T10:02:40.656Z,95858.98
2018-09-21T10:05:11.348Z,95856.11
2018-09-21T10:07:41.726Z,95857.01
2018-09-21T10:10:12.171Z,95853.92
2018-09-21T10:12:42.664Z,95850.94
2018-09-21T10:15:13.030Z,95852.86
2018-09-21T10:17:43.361Z,95839.51
2018-09-21T10:21:10.469Z,95842.41
2018-09-21T10:23:40.820Z,95839.11
2018-09-21T10:26:11.161Z,95841.64
2018-09-21T10:28:41.757Z,95825.34
2018-09-21T10:31:12.070Z,95837.63
2018-09-21T10:33:42.676Z,95817.84
2018-09-21T10:36:13.202Z,95816.25
2018-09-21T10:38:43.561Z,95825.89
2018-09-21T10:41:14.229Z,95811.70
2018-09-21T10:43:44.570Z,95804.72
2018-09-21T10:46:14.940Z,95799.38
2018-09-21T10:48:45.292Z,95774.36
2018-09-21T10:51:15.868Z,95785.19
2018-09-21T10:53:46.194Z,95778.34
2018-09-21T10:56:16.580Z,95779.48
2018-09-21T10:58:46.958Z,95780.51
2018-09-21T11:01:17.494Z,95782.77
2018-09-21T11:03:48.024Z,95775.72
2018-09-21T11:06:18.440Z,95775.46
2018-09-21T11:08:48.768Z,95779.14
2018-09-21T11:12:48.474Z,95778.63
2018-09-21T11:15:18.888Z,95784.83
2018-09-21T11:17:49.294Z,95782.39
2018-09-21T11:20:19.680Z,95784.81
2018-09-21T11:22:50.058Z,95777.03
2018-09-21T11:25:20.639Z,95779.78
2018-09-21T11:27:51.015Z,95781.40
2018-09-21T11:30:21.464Z,95777.41
2018-09-21T11:32:51.953Z,95777.06
2018-09-21T11:35:22.329Z,95777.52
2018-09-21T11:37:52.780Z,95776.07
2018-09-21T11:40:23.122Z,95767.59
2018-09-21T11:42:53.522Z,95763.34
2018-09-21T11:45:23.904Z,95762.41
2018-09-21T11:47:54.346Z,95754.55
2018-09-21T11:50:24.651Z,95740.55
2018-09-21T11:52:54.955Z,95737.14
2018-09-21T11:55:25.308Z,95733.93
2018-09-21T11:57:55.737Z,95732.75
2018-09-21T12:00:25.882Z,95719.78
2018-09-21T12:02:56.409Z,95714.28
2018-09-21T12:05:26.711Z,95709.11
2018-09-21T12:07:57.037Z,95718.61
2018-09-21T12:10:27.552Z,95709.84
2018-09-21T12:12:58.087Z,95699.81
2018-09-21T12:15:28.931Z,95702.08
2018-09-21T12:17:59.284Z,95697.42
2018-09-21T12:20:29.679Z,95698.05
2018-09-21T12:23:00.264Z,95696.25
2018-09-21T12:25:30.669Z,95691.91
2018-09-21T12:28:01.054Z,95688.42
2018-09-21T12:30:31.498Z,95685.54
2018-09-21T12:33:01.951Z,95677.50
2018-09-21T12:35:32.336Z,95674.57
2018-09-21T12:38:02.855Z,95682.75
2018-09-21T12:40:33.252Z,95685.23
2018-09-21T12:43:03.950Z,95678.70
2018-09-21T12:45:34.566Z,95676.27
2018-09-21T12:48:05.094Z,95668.03
2018-09-21T12:50:35.451Z,95664.61
2018-09-21T12:53:06.119Z,95666.12
2018-09-21T12:55:36.468Z,95663.75
2018-09-21T12:58:07.037Z,95659.27
2018-09-21T13:00:42.904Z,95661.27
2018-09-21T13:03:13.326Z,95652.65
2018-09-21T13:05:43.710Z,95646.18
2018-09-21T13:08:14.194Z,95659.03
2018-09-21T13:10:44.622Z,95650.16
2018-09-21T13:13:15.032Z,95652.55
2018-09-21T13:15:45.599Z,95655.07
2018-09-21T13:18:16.194Z,95651.11
2018-09-21T13:20:46.580Z,95654.70
2018-09-21T13:23:16.906Z,95653.65
2018-09-21T13:25:47.537Z,95661.06
2018-09-21T13:28:18.056Z,95680.03
2018-09-21T13:30:48.562Z,95682.13
2018-09-21T13:33:19.010Z,95688.44
2018-09-21T13:35:49.429Z,95694.09
2018-09-21T13:38:19.812Z,95700.98
2018-09-21T13:40:50.273Z,95705.66
2018-09-21T13:43:20.635Z,95697.55
2018-09-21T13:45:51.102Z,95699.94
2018-09-21T13:48:21.497Z,95696.34
2018-09-21T13:50:51.957Z,95704.57
2018-09-21T13:53:22.347Z,95713.98
2018-09-21T13:55:52.723Z,95718.37
2018-09-21T13:58:23.140Z,95717.16
2018-09-21T14:00:53.513Z,95711.59
2018-09-21T14:03:23.920Z,95715.33
2018-09-21T14:05:54.312Z,95721.05
2018-09-21T14:08:24.668Z,95727.28
2018-09-21T14:10:55.032Z,95728.61
2018-09-21T14:13:25.510Z,95727.65
2018-09-21T14:15:55.884Z,95743.52
2018-09-21T14:18:26.345Z,95727.98
2018-09-21T14:20:56.791Z,95721.88
2018-09-21T14:23:27.194Z,95725.89
2018-09-21T14:25:57.638Z,95718.88
2018-09-21T14:28:27.994Z,95717.83
2018-09-21T14:30:58.362Z,95724.10
2018-09-21T14:33:28.668Z,95724.01
2018-09-21T14:35:59.230Z,95724.44
2018-09-21T14:38:29.886Z,95720.48
2018-09-21T14:41:00.443Z,95722.87
2018-09-21T14:43:30.836Z,95735.50
2018-09-21T14:46:01.200Z,95740.42
2018-09-21T14:48:31.604Z,95741.00
2018-09-21T14:51:02.047Z,95745.06
2018-09-21T14:53:32.430Z,95747.34
2018-09-21T14:56:03.292Z,95748.63
2018-09-21T14:58:34.042Z,95757.08
2018-09-21T15:01:04.636Z,95749.35
2018-09-21T15:03:35.130Z,95738.53
2018-09-21T15:06:05.546Z,95742.58
2018-09-21T15:08:35.941Z,95721.36
2018-09-21T15:11:07.128Z,95718.17
2018-09-21T15:13:37.548Z,95713.64
2018-09-21T15:16:07.928Z,95724.13
2018-09-21T15:18:38.348Z,95720.86
2018-09-21T15:21:08.745Z,95715.23
2018-09-21T15:23:39.428Z,95719.31
2018-09-21T15:26:10.156Z,95722.53
2018-09-21T15:28:40.898Z,95720.98
2018-09-21T15:31:11.290Z,95737.02
2018-09-21T15:33:41.701Z,95746.73
2018-09-21T15:36:12.056Z,95751.50
2018-09-21T15:38:42.442Z,95757.99
2018-09-21T15:41:12.819Z,95759.63
2018-09-21T15:43:43.216Z,95764.53
2018-09-21T15:46:13.753Z,95760.53
2018-09-21T15:48:44.580Z,95767.44
2018-09-21T15:51:15.074Z,95758.57
2018-09-21T15:53:45.469Z,95768.28
2018-09-21T15:56:15.793Z,95787.00
2018-09-21T15:58:46.244Z,95791.45
2018-09-21T16:01:17.113Z,95786.06
2018-09-21T16:03:47.907Z,95794.70
2018-09-21T16:06:18.469Z,95782.83
2018-09-21T16:08:48.788Z,95784.99
2018-09-21T16:11:19.173Z,95789.66
2018-09-21T16:13:49.579Z,95791.66
2018-09-21T16:16:20.053Z,95786.24
2018-09-21T16:18:50.457Z,95795.17
2018-09-21T16:21:20.965Z,95799.34
2018-09-21T16:23:51.352Z,95815.69
2018-09-21T16:26:21.736Z,95794.73
2018-09-21T16:28:52.053Z,95807.23
2018-09-21T16:31:22.426Z,95815.89
2018-09-21T16:33:52.796Z,95824.20
2018-09-21T16:36:23.257Z,95829.89
2018-09-21T16:38:53.769Z,95839.14
2018-09-21T16:41:24.149Z,95836.69
2018-09-21T16:43:54.560Z,95839.78
2018-09-21T16:46:24.921Z,95841.77
2018-09-21T16:48:55.407Z,95828.84
2018-09-21T16:51:25.744Z,95842.24
2018-09-21T16:53:56.124Z,95851.05
2018-09-21T16:56:26.767Z,95859.08
2018-09-21T16:58:57.230Z,95861.53
2018-09-21T17:01:27.733Z,95860.91
2018-09-21T17:03:58.252Z,95870.76
2018-09-21T17:06:28.594Z,95867.55
2018-09-21T17:08:58.973Z,95883.23
2018-09-21T17:11:29.427Z,95897.86
2018-09-21T17:13:59.773Z,95896.48
2018-09-21T17:16:30.130Z,95920.48
2018-09-21T17:19:00.481Z,95937.83
2018-09-21T17:21:30.845Z,95947.41
2018-09-21T17:24:01.373Z,95957.02
2018-09-21T17:26:31.742Z,95968.91
2018-09-21T17:29:03.601Z,95995.89
2018-09-21T17:31:33.981Z,95983.45
2018-09-21T17:34:04.515Z,95990.84
2018-09-21T17:36:34.941Z,96010.34
2018-09-21T17:39:05.920Z,96049.72
2018-09-21T17:41:35.813Z,96052.66
2018-09-21T17:44:05.780Z,96053.76
2018-09-21T17:46:35.619Z,96020.13
2018-09-21T17:49:05.514Z,96035.81
2018-09-21T17:51:35.604Z,96035.39
2018-09-21T17:54:05.479Z,96022.22
2018-09-21T17:56:35.653Z,96047.09
2018-09-21T17:59:05.576Z,96062.25
2018-09-21T18:01:35.602Z,96085.91
2018-09-21T18:04:05.451Z,96092.02
2018-09-21T18:06:35.295Z,96099.02
2018-09-21T18:09:06.850Z,96103.82
2018-09-21T18:11:36.809Z,96112.33
2018-09-21T18:14:06.731Z,96107.59
2018-09-21T18:18:05.981Z,96136.42
2018-09-21T18:20:42.575Z,96165.09
2018-09-21T18:23:12.437Z,96169.70
2018-09-21T18:25:42.388Z,96193.45
2018-09-21T18:28:12.440Z,96211.97
2018-09-21T18:30:42.254Z,96214.41
2018-09-21T18:33:12.129Z,96203.36
2018-09-21T18:35:42.421Z,96220.13
2018-09-21T18:38:12.407Z,96226.34
2018-09-21T18:40:42.274Z,96228.89
2018-09-21T18:43:12.103Z,96244.70
2018-09-21T18:45:41.951Z,96257.39
2018-09-21T18:48:11.923Z,96265.27
2018-09-21T18:50:41.819Z,96267.06
2018-09-21T18:53:12.044Z,96280.52
2018-09-21T18:55:41.889Z,96289.63
2018-09-21T18:58:12.369Z,96294.66
2018-09-21T19:00:42.481Z,96285.03
2018-09-21T19:03:12.673Z,96293.45
2018-09-21T19:05:42.603Z,96293.45
2018-09-21T19:08:12.729Z,96302.34
2018-09-21T19:10:42.923Z,96306.73
2018-09-21T19:13:13.076Z,96301.87
2018-09-21T19:15:42.936Z,96302.58
2018-09-21T19:18:13.034Z,96296.57
2018-09-21T19:20:43.279Z,96318.81
2018-09-21T19:23:13.402Z,96310.91
2018-09-21T19:25:43.518Z,96332.26
2018-09-21T19:28:13.678Z,96344.60
2018-09-21T19:30:43.794Z,96355.19
2018-09-21T19:33:13.954Z,96354.17
2018-09-21T19:35:44.046Z,96349.92
2018-09-21T19:38:14.172Z,96364.49
2018-09-21T19:40:45.029Z,96379.45
2018-09-21T19:43:15.061Z,96392.70
2018-09-21T19:45:45.680Z,96386.67
2018-09-21T19:48:15.841Z,96391.28
2018-09-21T19:50:45.816Z,96398.56
2018-09-21T19:53:15.618Z,96405.27
2018-09-21T19:55:45.408Z,96401.16
2018-09-21T19:58:15.256Z,96389.94
2018-09-21T20:00:45.152Z,96402.10
2018-09-21T20:03:15.075Z,96408.22
2018-09-21T20:05:44.940Z,96408.69
2018-09-21T20:08:14.744Z,96408.47
2018-09-21T20:10:44.621Z,96410.80
2018-09-21T20:13:14.450Z,96420.43
2018-09-21T20:15:45.027Z,96435.86
2018-09-21T20:18:14.864Z,96441.75
2018-09-21T20:20:44.756Z,96452.73
2018-09-21T20:23:14.580Z,96474.63
2018-09-21T20:25:44.471Z,96473.87
2018-09-21T20:28:14.345Z,96470.55
2018-09-21T20:30:49.281Z,96469.56
2018-09-21T20:33:24.441Z,96476.78
2018-09-21T20:36:03.836Z,96497.91
2018-09-21T20:38:33.750Z,96500.82
2018-09-21T20:41:03.618Z,96497.48
2018-09-21T20:43:33.524Z,96487.70
2018-09-21T20:46:03.431Z,96488.10
2018-09-21T20:48:35.158Z,96501.03
2018-09-21T20:51:04.980Z,96506.88
2018-09-21T20:53:34.963Z,96518.64
2018-09-21T20:56:04.931Z,96537.59
2018-09-21T20:58:34.935Z,96548.34
2018-09-21T21:01:04.881Z,96545.60
2018-09-21T21:03:34.709Z,96545.59
2018-09-21T21:06:04.654Z,96531.49
2018-09-21T21:08:34.622Z,96527.39
2018-09-21T21:11:04.469Z,96526.02
2018-09-21T21:13:34.321Z,96522.27
2018-09-21T21:16:04.370Z,96532.66
2018-09-21T21:18:34.496Z,96519.55
2018-09-21T21:21:04.484Z,96500.19
2018-09-21T21:23:34.365Z,96499.37
2018-09-21T21:26:04.412Z,96503.33
2018-09-21T21:28:34.370Z,96502.95
2018-09-21T21:31:04.219Z,96516.44
2018-09-21T21:33:34.201Z,96532.49
2018-09-21T21:36:04.296Z,96557.50
2018-09-21T21:38:34.902Z,96575.48
2018-09-21T21:41:04.739Z,96587.60
2018-09-21T21:43:34.650Z,96582.31
2018-09-21T21:46:04.686Z,96581.15
2018-09-21T21:48:34.537Z,96594.62
2018-09-21T21:51:04.360Z,96586.00
2018-09-21T21:53:34.188Z,96599.11
2018-09-21T21:56:03.998Z,96608.49
2018-09-21T21:58:33.908Z,96596.55
2018-09-21T22:01:08.949Z,96579.67
2018-09-21T22:03:39.064Z,96572.45
2018-09-21T22:06:08.907Z,96583.81
2018-09-21T22:08:38.751Z,96591.27
2018-09-21T22:12:11.196Z,96594.05
2018-09-21T22:14:41.056Z,96596.20
2018-09-21T22:17:10.848Z,96592.68
2018-09-21T22:19:40.679Z,96585.66
2018-09-21T22:22:10.555Z,96592.11
2018-09-21T22:24:40.376Z,96580.95
2018-09-21T22:27:10.200Z,96606.75
2018-09-21T22:29:40.368Z,96610.87
2018-09-21T22:32:10.640Z,96603.05
2018-09-21T22:34:40.651Z,96603.63
2018-09-21T22:37:10.768Z,96612.23
2018-09-21T22:39:41.629Z,96611.06
2018-09-21T22:42:11.682Z,96620.06
2018-09-21T22:44:41.845Z,96627.30
2018-09-21T22:47:12.116Z,96628.08
2018-09-21T22:49:42.324Z,96634.72
2018-09-21T22:52:12.604Z,96644.30
2018-09-21T22:54:42.429Z,96642.36
2018-09-21T22:57:12.470Z,96656.22
2018-09-21T22:59:42.855Z,96668.53
2018-09-21T23:02:13.161Z,96658.97
2018-09-21T23:04:43.304Z,96665.97
2018-09-21T23:07:13.552Z,96672.80
2018-09-21T23:09:43.747Z,96657.60
2018-09-21T23:12:14.253Z,96655.80
2018-09-21T23:14:44.160Z,96669.91
2018-09-21T23:17:14.073Z,96670.84
2018-09-21T23:19:43.951Z,96678.32
2018-09-21T23:22:13.901Z,96678.13
2018-09-21T23:24:43.879Z,96691.03
2018-09-21T23:27:13.775Z,96696.31
2018-09-21T23:29:43.785Z,96695.91
2018-09-21T23:32:13.649Z,96694.95
2018-09-21T23:34:43.463Z,96673.23
2018-09-21T23:37:13.302Z,96679.32
2018-09-21T23:39:43.465Z,96689.28
2018-09-21T23:42:13.342Z,96674.03
2018-09-21T23:44:43.857Z,96683.02
2018-09-21T23:47:13.814Z,96681.05
2018-09-21T23:49:43.725Z,96680.65
2018-09-21T23:52:13.652Z,96680.84
2018-09-21T23:54:43.667Z,96686.11
2018-09-21T23:57:13.547Z,96687.88
2018-09-21T23:59:43.410Z,96691.23
